createdAt,value
2022-11-24T00:00:19.261Z,99410.34
2022-11-24T00:03:07.813Z,99405.00
2022-11-24T00:05:57.837Z,99413.03
2022-11-24T00:08:47.681Z,99419.59
2022-11-24T00:11:38.077Z,99421.13
2022-11-24T00:14:26.604Z,99417.53
2022-11-24T00:17:15.114Z,99423.88
2022-11-24T00:20:04.211Z,99426.56
2022-11-24T00:22:54.032Z,99433.13
2022-11-24T00:25:42.457Z,99440.50
2022-11-24T00:28:31.005Z,99448.31
2022-11-24T00:31:21.400Z,99452.47
2022-11-24T00:34:12.077Z,99443.81
2022-11-24T00:37:00.564Z,99451.19
2022-11-24T00:39:50.353Z,99452.03
2022-11-24T00:42:38.802Z,99447.31
2022-11-24T00:45:27.231Z,99447.44
2022-11-24T00:48:15.701Z,99454.66
2022-11-24T00:51:05.553Z,99452.41
2022-11-24T00:53:54.162Z,99447.91
2022-11-24T00:56:43.922Z,99452.19
2022-11-24T00:59:32.685Z,99466.19
2022-11-24T01:02:21.168Z,99455.50
2022-11-24T01:05:09.952Z,99472.94
2022-11-24T01:07:58.380Z,99476.25
2022-11-24T01:10:46.817Z,99481.56
2022-11-24T01:13:36.658Z,99479.28
2022-11-24T01:16:26.935Z,99491.84
2022-11-24T01:19:15.397Z,99493.88
2022-11-24T01:22:03.835Z,99505.19
2022-11-24T01:24:52.276Z,99480.34
2022-11-24T01:27:40.735Z,99504.59
2022-11-24T01:30:30.652Z,99506.28
2022-11-24T01:33:19.198Z,99507.56
2022-11-24T01:36:07.847Z,99511.19
2022-11-24T01:38:56.279Z,99510.41
2022-11-24T01:41:44.718Z,99514.53
2022-11-24T01:44:33.615Z,99514.13
2022-11-24T01:47:30.165Z,99509.97
2022-11-24T01:50:18.866Z,99522.75
2022-11-24T01:53:07.415Z,99520.25
2022-11-24T01:55:55.858Z,99518.59
2022-11-24T01:58:46.474Z,99520.03
2022-11-24T02:01:35.052Z,99522.06
2022-11-24T02:04:28.253Z,99528.84
2022-11-24T02:07:16.973Z,99528.44
2022-11-24T02:10:08.406Z,99523.06
2022-11-24T02:12:58.987Z,99498.47
2022-11-24T02:15:47.473Z,99533.38
2022-11-24T02:18:35.995Z,99529.81
2022-11-24T02:21:25.871Z,99527.56
2022-11-24T02:24:19.847Z,99529.91
2022-11-24T02:27:11.107Z,99520.31
2022-11-24T02:29:59.667Z,99524.31
2022-11-24T02:32:48.113Z,99525.78
2022-11-24T02:35:36.995Z,99528.66
2022-11-24T02:38:32.942Z,99501.38
2022-11-24T02:41:22.964Z,99532.41
2022-11-24T02:44:15.046Z,99533.88
2022-11-24T02:47:04.961Z,99531.22
2022-11-24T02:49:53.441Z,99529.75
2022-11-24T02:52:41.881Z,99525.66
2022-11-24T02:55:30.411Z,99493.56
2022-11-24T02:58:18.834Z,99534.50
2022-11-24T03:01:08.765Z,99533.94
2022-11-24T03:03:57.263Z,99538.44
2022-11-24T03:06:45.696Z,99540.13
2022-11-24T03:09:34.102Z,99533.31
2022-11-24T03:12:22.567Z,99536.41
2022-11-24T03:15:11.813Z,99546.31
2022-11-24T03:18:01.873Z,99539.94
2022-11-24T03:20:50.310Z,99540.19
2022-11-24T03:23:38.734Z,99548.59
2022-11-24T03:26:27.845Z,99555.44
2022-11-24T03:29:16.841Z,99545.91
2022-11-24T03:32:05.900Z,99548.81
2022-11-24T03:34:55.690Z,99534.66
2022-11-24T03:37:44.118Z,99553.38
2022-11-24T03:40:32.566Z,99554.22
2022-11-24T03:43:21.391Z,99555.28
2022-11-24T03:46:10.213Z,99547.47
2022-11-24T03:48:58.687Z,99551.81
2022-11-24T03:51:48.488Z,99566.63
2022-11-24T03:54:36.909Z,99546.44
2022-11-24T03:57:25.371Z,99546.03
2022-11-24T04:00:14.454Z,99557.75
2022-11-24T04:03:05.564Z,99558.38
2022-11-24T04:05:54.032Z,99560.00
2022-11-24T04:08:43.816Z,99554.06
2022-11-24T04:11:49.879Z,99555.91
2022-11-24T04:14:38.477Z,99568.22
2022-11-24T04:17:26.951Z,99562.69
2022-11-24T04:20:16.012Z,99566.78
2022-11-24T04:23:04.787Z,99562.88
2022-11-24T04:25:54.582Z,99571.53
2022-11-24T04:28:43.028Z,99577.28
2022-11-24T04:31:31.488Z,99573.56
2022-11-24T04:34:19.982Z,99577.88
2022-11-24T04:37:08.403Z,99574.59
2022-11-24T04:39:56.875Z,99586.13
2022-11-24T04:42:53.446Z,99579.75
2022-11-24T04:45:41.869Z,99566.63
2022-11-24T04:48:30.327Z,99575.84
2022-11-24T04:51:18.744Z,99576.06
2022-11-24T04:54:07.903Z,99581.84
2022-11-24T04:56:56.342Z,99575.84
2022-11-24T04:59:46.148Z,99578.72
2022-11-24T05:02:34.684Z,99589.44
2022-11-24T05:05:23.144Z,99588.88
2022-11-24T05:08:11.584Z,99598.53
2022-11-24T05:11:05.123Z,99598.31
2022-11-24T05:13:53.935Z,99602.22
2022-11-24T05:16:43.889Z,99606.78
2022-11-24T05:19:32.605Z,99616.47
2022-11-24T05:22:21.145Z,99611.72
2022-11-24T05:25:10.132Z,99613.16
2022-11-24T05:28:00.646Z,99608.66
2022-11-24T05:30:49.145Z,99624.28
2022-11-24T05:33:38.952Z,99622.44
2022-11-24T05:36:59.519Z,99615.66
2022-11-24T05:39:47.983Z,99604.16
2022-11-24T05:42:47.149Z,99630.47
2022-11-24T05:45:36.009Z,99626.13
2022-11-24T05:48:24.513Z,99629.84
2022-11-24T05:51:14.286Z,99632.78
2022-11-24T05:54:02.709Z,99628.25
2022-11-24T05:56:51.166Z,99614.22
2022-11-24T05:59:39.760Z,99614.25
2022-11-24T06:02:28.248Z,99652.34
2022-11-24T06:05:16.900Z,99666.75
2022-11-24T06:08:06.855Z,99648.81
2022-11-24T06:10:55.295Z,99660.56
2022-11-24T06:13:44.259Z,99672.09
2022-11-24T06:16:33.214Z,99671.06
2022-11-24T06:19:21.685Z,99681.78
2022-11-24T06:22:10.195Z,99681.34
2022-11-24T06:25:00.092Z,99681.34
2022-11-24T06:27:48.534Z,99698.25
2022-11-24T06:30:36.987Z,99699.06
2022-11-24T06:33:25.406Z,99704.63
2022-11-24T06:36:14.815Z,99710.38
2022-11-24T06:39:03.394Z,99714.69
2022-11-24T06:41:53.666Z,99713.06
2022-11-24T06:44:42.111Z,99712.41
2022-11-24T06:47:30.614Z,99721.28
2022-11-24T06:50:19.135Z,99720.66
2022-11-24T06:53:07.889Z,99733.81
2022-11-24T06:55:58.862Z,99730.53
2022-11-24T06:58:49.937Z,99738.78
2022-11-24T07:01:38.536Z,99729.69
2022-11-24T07:04:27.029Z,99735.28
2022-11-24T07:07:15.537Z,99732.41
2022-11-24T07:10:04.362Z,99703.16
2022-11-24T07:12:52.818Z,99734.47
2022-11-24T07:15:42.626Z,99742.88
2022-11-24T07:18:31.063Z,99730.13
2022-11-24T07:21:20.321Z,99736.50
2022-11-24T07:24:09.059Z,99734.66
2022-11-24T07:26:57.511Z,99743.88
2022-11-24T07:29:45.974Z,99748.84
2022-11-24T07:32:35.822Z,99742.66
2022-11-24T07:35:24.689Z,99743.66
2022-11-24T07:38:13.282Z,99758.88
2022-11-24T07:41:02.378Z,99778.63
2022-11-24T07:43:51.587Z,99752.41
2022-11-24T07:46:40.127Z,99783.97
2022-11-24T07:49:30.038Z,99790.56
2022-11-24T07:52:18.566Z,99798.16
2022-11-24T07:55:08.491Z,99798.59
2022-11-24T07:58:00.364Z,99798.78
2022-11-24T08:00:48.815Z,99767.25
2022-11-24T08:03:37.394Z,99792.56
2022-11-24T08:06:36.195Z,99807.84
2022-11-24T08:09:28.018Z,99813.41
2022-11-24T08:12:17.424Z,99817.72
2022-11-24T08:15:10.966Z,99831.47
2022-11-24T08:18:02.510Z,99831.69
2022-11-24T08:20:51.129Z,99836.22
2022-11-24T08:23:41.121Z,99842.41
2022-11-24T08:26:29.546Z,99841.59
2022-11-24T08:29:17.997Z,99851.09
2022-11-24T08:32:06.828Z,99854.19
2022-11-24T08:34:59.648Z,99857.69
2022-11-24T08:38:01.686Z,99857.47
2022-11-24T08:40:54.354Z,99846.81
2022-11-24T08:43:43.007Z,99850.34
2022-11-24T08:46:31.661Z,99856.31
2022-11-24T08:49:21.586Z,99856.50
2022-11-24T08:52:10.415Z,99859.63
2022-11-24T08:54:58.942Z,99854.06
2022-11-24T08:57:48.863Z,99864.59
2022-11-24T09:00:37.331Z,99868.91
2022-11-24T09:03:25.790Z,99872.59
2022-11-24T09:06:14.385Z,99882.91
2022-11-24T09:09:03.092Z,99893.63
2022-11-24T09:11:51.604Z,99903.72
2022-11-24T09:14:43.030Z,99873.97
2022-11-24T09:17:32.988Z,99896.44
2022-11-24T09:20:21.669Z,99908.00
2022-11-24T09:23:10.279Z,99908.25
2022-11-24T09:26:04.590Z,99910.47
2022-11-24T09:28:55.320Z,99924.53
2022-11-24T09:31:45.168Z,99928.00
2022-11-24T09:34:33.740Z,99930.28
2022-11-24T09:37:22.396Z,99943.47
2022-11-24T09:40:13.140Z,99947.19
2022-11-24T09:43:04.936Z,99960.78
2022-11-24T09:46:05.412Z,99963.66
2022-11-24T09:48:58.757Z,99975.59
2022-11-24T09:51:49.733Z,99968.56
2022-11-24T09:54:38.829Z,99970.63
2022-11-24T09:57:31.478Z,99966.91
2022-11-24T10:00:24.443Z,99945.22
2022-11-24T10:03:21.021Z,99964.84
2022-11-24T10:06:20.676Z,99965.47
2022-11-24T10:09:16.997Z,99975.00
2022-11-24T10:12:31.918Z,99973.56
2022-11-24T10:15:25.672Z,99970.09
2022-11-24T10:18:28.690Z,99971.81
2022-11-24T10:21:59.453Z,99980.34
2022-11-24T10:25:04.459Z,99974.16
2022-11-24T10:27:57.788Z,99964.69
2022-11-24T10:30:46.444Z,99980.72
2022-11-24T10:33:35.156Z,99976.97
2022-11-24T10:36:27.470Z,99955.28
2022-11-24T10:39:21.860Z,99972.09
2022-11-24T10:42:15.461Z,99972.44
2022-11-24T10:45:09.562Z,99962.91
2022-11-24T10:47:58.693Z,99935.47
2022-11-24T10:50:47.233Z,99968.88
2022-11-24T10:53:36.648Z,99949.47
2022-11-24T10:56:26.535Z,99947.78
2022-11-24T10:59:33.365Z,99975.13
2022-11-24T11:02:37.861Z,99975.31
2022-11-24T11:05:41.902Z,99984.44
2022-11-24T11:08:31.307Z,99960.34
2022-11-24T11:11:23.635Z,99941.88
2022-11-24T11:14:13.875Z,99974.22
2022-11-24T11:17:03.071Z,99972.59
2022-11-24T11:19:56.892Z,99968.84
2022-11-24T11:22:50.408Z,99975.25
2022-11-24T11:25:41.063Z,99985.16
2022-11-24T11:28:31.312Z,99977.16
2022-11-24T11:31:22.821Z,99982.81
2022-11-24T11:34:23.312Z,99983.94
2022-11-24T11:37:15.959Z,99980.88
2022-11-24T11:40:09.500Z,99980.69
2022-11-24T11:43:03.286Z,99970.19
2022-11-24T11:46:00.670Z,99979.09
2022-11-24T11:48:50.653Z,99972.72
2022-11-24T11:52:05.172Z,99982.66
2022-11-24T11:55:09.872Z,99981.41
2022-11-24T11:58:06.537Z,99971.50
2022-11-24T12:01:01.419Z,99964.06
2022-11-24T12:04:02.973Z,99985.44
2022-11-24T12:07:06.121Z,99983.56
2022-11-24T12:10:01.528Z,99989.59
2022-11-24T12:13:16.012Z,99992.28
2022-11-24T12:16:12.713Z,99968.13
2022-11-24T12:19:15.020Z,99997.66
2022-11-24T12:22:08.526Z,100008.41
2022-11-24T12:24:59.846Z,100017.50
2022-11-24T12:27:56.686Z,100009.88
2022-11-24T12:30:51.595Z,100011.09
2022-11-24T12:34:04.177Z,100014.34
2022-11-24T12:37:08.920Z,100005.63
2022-11-24T12:40:05.225Z,100010.00
2022-11-24T12:42:59.033Z,100008.59
2022-11-24T12:45:54.331Z,100006.19
2022-11-24T12:48:52.260Z,100004.13
2022-11-24T12:51:43.736Z,100012.53
2022-11-24T12:54:38.299Z,100005.94
2022-11-24T12:57:29.990Z,100008.69
2022-11-24T13:00:22.364Z,100007.91
2022-11-24T13:03:19.328Z,100019.03
2022-11-24T13:06:13.413Z,100006.13
2022-11-24T13:09:09.104Z,100010.28
2022-11-24T13:12:12.086Z,100011.34
2022-11-24T13:15:00.583Z,100007.41
2022-11-24T13:18:05.552Z,100010.72
2022-11-24T13:20:58.832Z,100015.81
2022-11-24T13:23:57.386Z,100004.47
2022-11-24T13:26:48.354Z,100012.09
2022-11-24T13:29:38.649Z,100004.81
2022-11-24T13:32:59.338Z,100011.44
2022-11-24T13:36:23.625Z,100027.66
2022-11-24T13:39:20.889Z,100015.50
2022-11-24T13:42:09.485Z,100011.78
2022-11-24T13:45:00.301Z,100001.16
2022-11-24T13:47:48.923Z,100008.47
2022-11-24T13:51:16.118Z,100014.31
2022-11-24T13:54:04.716Z,100011.44
2022-11-24T13:56:53.192Z,100010.22
2022-11-24T13:59:41.783Z,100015.41
2022-11-24T14:02:34.496Z,99996.84
2022-11-24T14:05:25.277Z,99996.03
2022-11-24T14:08:19.555Z,100005.72
2022-11-24T14:11:17.867Z,100001.19
2022-11-24T14:14:16.182Z,100001.41
2022-11-24T14:17:19.849Z,99986.63
2022-11-24T14:20:18.369Z,100002.75
2022-11-24T14:23:10.037Z,100003.38
2022-11-24T14:25:58.631Z,100004.00
2022-11-24T14:28:47.533Z,99980.47
2022-11-24T14:31:36.185Z,99996.75
2022-11-24T14:34:26.716Z,99982.97
2022-11-24T14:37:16.568Z,99995.97
2022-11-24T14:40:05.974Z,99998.22
2022-11-24T14:42:54.524Z,99996.38
2022-11-24T14:45:49.671Z,99998.81
2022-11-24T14:48:40.129Z,99981.94
2022-11-24T14:51:30.931Z,100003.81
2022-11-24T14:54:22.509Z,100000.91
2022-11-24T14:57:25.563Z,100001.34
2022-11-24T15:00:20.020Z,100021.56
2022-11-24T15:03:20.313Z,100016.00
2022-11-24T15:06:17.266Z,100024.88
2022-11-24T15:09:05.826Z,100031.28
2022-11-24T15:11:56.428Z,100040.16
2022-11-24T15:14:51.237Z,100049.66
2022-11-24T15:17:46.907Z,100038.31
2022-11-24T15:20:37.565Z,100033.97
2022-11-24T15:23:27.605Z,100031.50
2022-11-24T15:26:31.269Z,100030.66
2022-11-24T15:29:22.359Z,100033.56
2022-11-24T15:32:13.690Z,100036.22
2022-11-24T15:35:02.278Z,100032.28
2022-11-24T15:37:50.894Z,100036.16
2022-11-24T15:40:39.807Z,100035.91
2022-11-24T15:43:31.018Z,100032.78
2022-11-24T15:46:20.941Z,100035.63
2022-11-24T15:49:09.470Z,100031.25
2022-11-24T15:51:58.002Z,100024.38
2022-11-24T15:54:46.821Z,100031.31
2022-11-24T15:57:35.387Z,100039.72
2022-11-24T16:00:24.689Z,100044.59
2022-11-24T16:03:45.055Z,100046.53
2022-11-24T16:06:24.931Z,100049.78
2022-11-24T16:09:16.508Z,99944.66
2022-11-24T16:12:05.321Z,100056.59
2022-11-24T16:14:53.871Z,100057.75
2022-11-24T16:17:42.579Z,100053.97
2022-11-24T16:20:34.950Z,100061.41
2022-11-24T16:23:23.549Z,100050.25
2022-11-24T16:26:12.127Z,99940.75
2022-11-24T16:29:00.650Z,100064.41
2022-11-24T16:31:50.301Z,100038.88
2022-11-24T16:34:38.865Z,100072.47
2022-11-24T16:37:28.682Z,100069.63
2022-11-24T16:40:18.159Z,100062.94
2022-11-24T16:43:06.663Z,100057.06
2022-11-24T16:46:01.730Z,100056.53
2022-11-24T16:48:51.971Z,100055.69
2022-11-24T16:51:42.410Z,100058.47
2022-11-24T16:54:32.588Z,100062.69
2022-11-24T16:57:21.462Z,100062.78
2022-11-24T17:00:11.077Z,100044.00
2022-11-24T17:02:59.566Z,100057.91
2022-11-24T17:05:57.789Z,100059.56
2022-11-24T17:08:47.127Z,100066.25
2022-11-24T17:11:37.103Z,100067.72
2022-11-24T17:14:25.758Z,100071.31
2022-11-24T17:17:14.302Z,100050.50
2022-11-24T17:20:02.742Z,100071.66
2022-11-24T17:22:51.297Z,100071.72
2022-11-24T17:25:39.781Z,100069.00
2022-11-24T17:28:29.664Z,100069.28
2022-11-24T17:31:22.009Z,100077.44
2022-11-24T17:34:12.386Z,100074.47
2022-11-24T17:37:00.958Z,100005.34
2022-11-24T17:40:05.927Z,100066.00
2022-11-24T17:42:59.655Z,100072.88
2022-11-24T17:45:55.627Z,100079.56
2022-11-24T17:48:44.211Z,100082.59
2022-11-24T17:51:32.676Z,100048.66
2022-11-24T17:54:45.438Z,100101.56
2022-11-24T17:57:30.229Z,100096.59
2022-11-24T18:00:19.589Z,100087.19
2022-11-24T18:03:09.553Z,100088.06
2022-11-24T18:05:58.085Z,100090.78
2022-11-24T18:08:48.061Z,100060.94
2022-11-24T18:11:36.709Z,100073.50
2022-11-24T18:14:25.389Z,100077.47
2022-11-24T18:17:13.897Z,100069.22
2022-11-24T18:20:03.837Z,100083.13
2022-11-24T18:23:05.469Z,100086.63
2022-11-24T18:25:54.877Z,100088.47
2022-11-24T18:28:44.042Z,100069.38
2022-11-24T18:31:34.244Z,100073.72
2022-11-24T18:34:24.718Z,100059.00
2022-11-24T18:37:16.338Z,100071.94
2022-11-24T18:40:05.534Z,100071.16
2022-11-24T18:42:54.095Z,100069.50
2022-11-24T18:45:42.842Z,100067.19
2022-11-24T18:48:31.469Z,100063.25
2022-11-24T18:51:20.199Z,100071.56
2022-11-24T18:54:10.212Z,100070.22
2022-11-24T18:57:03.131Z,100070.88
2022-11-24T18:59:52.104Z,100066.56
2022-11-24T19:02:40.694Z,100065.88
2022-11-24T19:05:29.297Z,100068.84
2022-11-24T19:08:17.822Z,100063.19
2022-11-24T19:11:07.886Z,100067.88
2022-11-24T19:13:57.086Z,100062.22
2022-11-24T19:16:47.594Z,100061.91
2022-11-24T19:19:36.221Z,100055.09
2022-11-24T19:22:24.789Z,100057.44
2022-11-24T19:25:13.282Z,100031.69
2022-11-24T19:28:03.117Z,100031.00
2022-11-24T19:30:51.651Z,100052.94
2022-11-24T19:33:40.665Z,100062.06
2022-11-24T19:36:29.232Z,100059.75
2022-11-24T19:39:17.817Z,100067.22
2022-11-24T19:42:06.408Z,100068.34
2022-11-24T19:44:56.881Z,100036.50
2022-11-24T19:47:45.636Z,100044.47
2022-11-24T19:50:34.193Z,100064.03
2022-11-24T19:53:22.663Z,100063.19
2022-11-24T19:56:12.482Z,100059.66
2022-11-24T19:59:00.999Z,100072.78
2022-11-24T20:01:50.990Z,100064.41
2022-11-24T20:04:42.458Z,100063.78
2022-11-24T20:07:30.963Z,100053.66
2022-11-24T20:10:19.578Z,100041.91
2022-11-24T20:13:08.048Z,100056.59
2022-11-24T20:15:56.513Z,100055.19
2022-11-24T20:18:48.039Z,100049.66
2022-11-24T20:21:37.649Z,100057.13
2022-11-24T20:24:26.126Z,100046.19
2022-11-24T20:27:14.796Z,100069.50
2022-11-24T20:30:03.339Z,100061.19
2022-11-24T20:32:51.853Z,100063.19
2022-11-24T20:35:41.779Z,100067.16
2022-11-24T20:38:30.855Z,100066.84
2022-11-24T20:41:21.788Z,100058.03
2022-11-24T20:44:13.646Z,100065.19
2022-11-24T20:47:03.175Z,100062.56
2022-11-24T20:49:51.803Z,99961.44
2022-11-24T20:52:41.607Z,100064.56
2022-11-24T20:55:31.840Z,100061.72
2022-11-24T20:58:20.338Z,100067.44
2022-11-24T21:01:10.258Z,100064.81
2022-11-24T21:04:00.497Z,100069.81
2022-11-24T21:06:48.990Z,100078.63
2022-11-24T21:09:38.815Z,100059.03
2022-11-24T21:12:27.315Z,100064.84
2022-11-24T21:15:16.021Z,100061.34
2022-11-24T21:18:05.581Z,100061.69
2022-11-24T21:20:54.081Z,100016.25
2022-11-24T21:23:42.761Z,100057.06
2022-11-24T21:26:32.748Z,100052.75
2022-11-24T21:29:23.535Z,100059.72
2022-11-24T21:32:12.314Z,100065.03
2022-11-24T21:35:00.860Z,100058.09
2022-11-24T21:37:49.354Z,100054.75
2022-11-24T21:40:37.850Z,100066.22
2022-11-24T21:43:28.510Z,100071.19
2022-11-24T21:46:17.771Z,100073.19
2022-11-24T21:49:06.407Z,100062.72
2022-11-24T21:51:55.974Z,100074.50
2022-11-24T21:54:44.778Z,100070.34
2022-11-24T21:57:33.265Z,100071.50
2022-11-24T22:00:23.574Z,100068.72
2022-11-24T22:03:12.220Z,100068.03
2022-11-24T22:06:01.533Z,100062.53
2022-11-24T22:08:50.564Z,100067.03
2022-11-24T22:11:39.126Z,100069.53
2022-11-24T22:14:27.852Z,100066.69
2022-11-24T22:17:17.771Z,100073.63
2022-11-24T22:20:07.867Z,100071.28
2022-11-24T22:22:56.400Z,100061.50
2022-11-24T22:25:44.897Z,100066.16
2022-11-24T22:28:33.892Z,100065.50
2022-11-24T22:31:23.766Z,100075.00
2022-11-24T22:34:13.767Z,100064.34
2022-11-24T22:37:02.366Z,100070.31
2022-11-24T22:39:51.969Z,100051.69
2022-11-24T22:42:40.559Z,100067.09
2022-11-24T22:45:29.162Z,100051.31
2022-11-24T22:48:17.839Z,100058.28
2022-11-24T22:51:09.267Z,100063.75
2022-11-24T22:53:59.041Z,100058.97
2022-11-24T22:56:47.531Z,100060.94
2022-11-24T22:59:35.987Z,100060.88
2022-11-24T23:02:24.540Z,100046.47
2022-11-24T23:05:16.766Z,100055.78
2022-11-24T23:08:09.198Z,100041.19
2022-11-24T23:11:02.037Z,100060.97
2022-11-24T23:13:53.765Z,100073.88
2022-11-24T23:16:42.800Z,99932.75
2022-11-24T23:19:31.311Z,100066.34
2022-11-24T23:22:19.757Z,100075.19
2022-11-24T23:25:10.214Z,100081.59
2022-11-24T23:27:58.688Z,100075.91
2022-11-24T23:30:47.168Z,100027.22
2022-11-24T23:33:36.003Z,100075.56
2022-11-24T23:36:24.444Z,100078.69
2022-11-24T23:39:14.222Z,100073.00
2022-11-24T23:42:04.107Z,100070.69
2022-11-24T23:44:52.589Z,100072.81
2022-11-24T23:47:41.106Z,100061.19
2022-11-24T23:50:29.958Z,100054.41
2022-11-24T23:53:18.414Z,100059.97
2022-11-24T23:56:07.655Z,100055.19
2022-11-24T23:58:57.500Z,100052.88
